Terminal Aerodrome Forecast
Issued by NWS Bismarck, ND

Home | Current Version | Previous Version | Text Only | Print | Product List | Glossary On
Versions: 1 2 3 4 5 6 7 8 9 10 11 12 13 14 15 16 17 18 19 20 21 22 23
637
FTUS43 KBIS 140921 AAC
TAFBIS
TAF AMD
KBIS 140921Z 1409/1506 15005KT 4SM -FZDZ BR OVC005
      TEMPO 1410/1414 6SM -FZDZ BR OVC008
     FM141400 30009KT 6SM BR BKN010 OVC015
     FM141800 29009KT P6SM SCT025
     FM142100 28008KT P6SM BKN100=

USA.gov is the U.S. government's official web portal to all federal, state and local government web resources and services.